Tiempo atmosférico en la estación meteorológica de Arevalo, Ávila (820 m.)



Fecha
DESCASC
Temp. máxima en grados centígrados (hora)
DESCASC
Temp. mínima en grados centígrados (hora)
DESCASC
Temp. media en grados centígrados
DESCASC
Racha de viento máxima en m/sg (hora)
DESCASC
Velocidad máxima media en intervalos de 10 minutos(hora)
DESCASC
Precipitaciones diarias en mm
DESCASC
Precipitaciones de 00:00 a 06:00 en mm
DESCASC
Precipitaciones de 06:00 a 12:00 en mm
DESCASC
Precipitaciones de 12:00 a 18:00 en mm
DESCASC
Precipitaciones de 18:00 a 24:00 en mm
DESCASC
18-08-2019 29.9 (18:00) 14.5 (08:10) 22.2 10.83 (16:50) 6.39 (18:50) 0 0 0 0 0
17-08-2019 34.2 (16:30) 14.2 (08:00) 24.2 9.72 (19:00) 5 (16:50) 0 0 0 0 0
16-08-2019 33.4 (17:50) 14.3 (07:40) 23.9 9.17 (18:00) 4.44 (17:00) 0 0 0 0 0
15-08-2019 32 (17:10) 16.1 (00:00) 24.1 7.5 (01:50) 4.72 (01:50) 0 0 0 0 0
14-08-2019 30.8 (18:50) 9.9 (00:00) 20.3 7.22 (18:10) 3.61 (17:50) 0 0 0 0 0
13-08-2019 26.9 (18:40) 8.4 (00:00) 17.6 6.94 (17:10) 4.17 (18:10) 0 0 0 0 0
12-08-2019 23.6 (17:20) 8.8 (00:00) 16.2 7.5 (15:10) 4.17 (15:10) 0 0 0 0 0
11-08-2019 23.7 (17:00) 13.9 (00:00) 18.8 11.67 (18:00) 5.56 (23:10) 0 0 0 0 0
10-08-2019 28.1 (17:00) 10.2 (00:00) 19.2 6.94 (19:30) 3.89 (19:10) 0 0 0 0 0
09-08-2019 25.7 (11:40) 16.1 (00:00) 20.9 14.72 (11:30) 9.72 (10:40) 1 0 0 0 1
08-08-2019 32 (17:20) 17.4 (00:00) 24.7 13.06 (19:20) 7.78 (19:20) 0 0 0 0 0
07-08-2019 26.6 (15:10) 18.5 (00:00) 22.6 10 (18:00) 5.83 (17:40) 0 0 0 0 0
06-08-2019 32.5 (16:20) 17.9 (00:00) 25.2 8.89 (17:50) 5 (22:00) 0 0 0 0 0
05-08-2019 33.6 (18:00) 16.1 (00:00) 24.8 10.28 (19:40) 5 (18:20) 0 0 0 0 0
04-08-2019 33.4 (17:50) 17.5 (00:00) 25.5 9.44 (17:20) 5 (03:40) 0 0 0 0 0
03-08-2019 34.3 (16:50) 13 (00:00) 23.6 9.72 (17:40) 4.72 (17:40) 0 0 0 0 0
02-08-2019 33.4 (17:10) 12.3 (00:00) 22.9 7.5 (14:40) 3.89 (17:20) 0 0 0 0 0
01-08-2019 31 (18:10) 14.3 (00:00) 22.7 8.89 (13:20) 4.44 (14:20) 0 0 0 0 0
31-07-2019 32.5 (17:40) 9.6 (00:00) 21.1 10 (18:40) 6.39 (18:50) 0 0 0 0 0
30-07-2019 25.8 (18:00) 9.8 (00:00) 17.8 7.22 (21:00) 3.61 (00:30) 0 0 0 0 0
29-07-2019 27.4 (17:30) 14.2 (00:00) 20.8 11.94 (17:00) 6.67 (17:40) 0 0 0 0 0
28-07-2019 27.6 (18:50) 9.5 (00:00) 18.6 6.11 (14:50) 3.33 (14:30) 0 0 0 0 0
27-07-2019 24.7 (17:30) 13.8 (00:00) 19.3 10.83 (15:00) 6.67 (19:10) 0 0 0 0 0
26-07-2019 26.9 (18:20) 17 (00:00) 21.9 10.83 (19:40) 5.28 (19:40) 0 0 0 0 0
25-07-2019 33.7 (13:40) 17.3 (00:00) 25.5 11.67 (16:40) 6.94 (16:00) 0 0 0 0 0
24-07-2019 36 (16:40) 17.3 (00:00) 26.6 10 (13:20) 6.11 (14:10) 0.2 0.2 0 0 0

Gráficas

Temp. máximas Temp. mínimas Temp. medias Precipitaciones Rachas de viento máximas Velocidades máximas media en intervalos de 10 minutos

Datos horarios

Fecha y hora oficial Temperatura (ºC) Velocidad del viento (km/h) Dirección del viento Racha (km/h) Dirección de racha Precipitación (mm) Presión (hPa) Tendencia (hPa) Humedad (%)
2019-08-22 23:00:00 22.3 3 Nordeste 8 Norte 0 -- -- 18
2019-08-22 22:00:00 24.7 4 Norte 12 Norte 0 -- -- 15
2019-08-22 21:00:00 27.6 8 Norte 22 Noroeste 0 -- -- 14
2019-08-22 20:00:00 29.9 10 Noroeste 17 Noroeste 0 -- -- 15
2019-08-22 19:00:00 30.7 5 Nordeste 16 Nordeste 0 -- -- 14
2019-08-22 18:00:00 30.9 5 Sudeste 20 Nordeste 0 -- -- 17
2019-08-22 17:00:00 30.4 6 Nordeste 24 Nordeste 0 -- -- 19
2019-08-22 16:00:00 30 8 Nordeste 21 Norte 0 -- -- 22
2019-08-22 15:00:00 29.1 10 Nordeste 22 Nordeste 0 -- -- 24
2019-08-22 14:00:00 28.4 9 Este 24 Nordeste 0 -- -- 25
2019-08-22 13:00:00 26.5 8 Nordeste 17 Nordeste 0 -- -- 37
2019-08-22 12:00:00 24.4 6 Nordeste 15 Este 0 -- -- 48
2019-08-22 11:00:00 22.7 6 Nordeste 12 Nordeste 0 -- -- 54
2019-08-22 10:00:00 18.8 5 Este 12 Nordeste 0 -- -- 61
2019-08-22 09:00:00 16.1 4 Nordeste 8 Nordeste 0 -- -- 70
2019-08-22 08:00:00 13.6 4 Nordeste 6 Norte 0 -- -- 81
2019-08-22 07:00:00 13.7 3 Este 7 Este 0 -- -- 80
2019-08-22 06:00:00 14.3 4 Este 10 Este 0 -- -- 75
2019-08-22 05:00:00 15 5 Este 9 Nordeste 0 -- -- 73
2019-08-22 04:00:00 16.2 5 Nordeste 9 Nordeste 0 -- -- 65
2019-08-22 03:00:00 17 4 Noroeste 10 Sur 0 -- -- 60
2019-08-22 02:00:00 18.8 5 Sudeste 13 Sur 0 -- -- 52
2019-08-22 01:00:00 19.9 3 Nordeste 10 Este 0 -- -- 45
2019-08-22 00:00:00 21.2 9 Este 16 Nordeste 0 -- -- 44
2019-08-21 23:00:00 21.4 6 Nordeste 12 Norte 0 -- -- 49
2019-08-21 22:00:00 22.2 4 Sur 10 Sudoeste 0 -- -- 55
2019-08-21 21:00:00 25.9 7 Sudoeste 11 Sudoeste 0 -- -- 45
2019-08-21 20:00:00 27.3 5 Oeste 21 Oeste 0 -- -- 37
2019-08-21 19:00:00 25.4 17 Oeste 39 Oeste 0 -- -- 48
2019-08-21 18:00:00 28.1 6 Norte 13 Norte 0 -- -- 33
2019-08-21 17:00:00 29.6 7 Sudoeste 23 Sudeste 0 -- -- 32
2019-08-21 16:00:00 28.6 17 Sur 28 Sudeste 0 -- -- 37
2019-08-21 15:00:00 27.6 7 Nordeste 17 Nordeste 0 -- -- 40
2019-08-21 14:00:00 26.5 8 Nordeste 18 Norte 0 -- -- 45
2019-08-21 13:00:00 25.5 6 Nordeste 21 Sudeste 0 -- -- 47
2019-08-21 12:00:00 24.3 8 Este 16 Este 0 -- -- 50
2019-08-21 11:00:00 22.7 8 Este 15 Este 0 -- -- 55
2019-08-21 10:00:00 18 5 Nordeste 10 Nordeste 0 -- -- 63
2019-08-21 09:00:00 14.8 4 Norte 10 Norte 0 -- -- 70
2019-08-21 08:00:00 13.8 3 Nordeste 6 Nordeste 0 -- -- 72
2019-08-21 07:00:00 13.2 3 Nordeste 7 Este 0 -- -- 71
2019-08-21 06:00:00 13.2 0 Calma 6 Este 0 -- -- 71
2019-08-21 05:00:00 14.1 3 Nordeste 12 Norte 0 -- -- 69
2019-08-21 04:00:00 14.9 6 Norte 9 Norte 0 -- -- 68
2019-08-21 03:00:00 15.4 5 Noroeste 8 Norte 0 -- -- 65
2019-08-21 02:00:00 15.7 3 Oeste 10 Norte 0 -- -- 63
2019-08-21 01:00:00 17.1 8 Norte 13 Norte 0 -- -- 59
2019-08-21 00:00:00 18.2 6 Norte 17 Nordeste 0 -- -- 55
2019-08-20 23:00:00 19.5 11 Nordeste 23 Nordeste 0 -- -- 50
2019-08-20 22:00:00 21.5 15 Nordeste 28 Norte 0 -- -- 45
2019-08-20 21:00:00 24 15 Nordeste 29 Norte 0 -- -- 39
2019-08-20 20:00:00 26.8 10 Nordeste 20 Nordeste 0 -- -- 31
2019-08-20 19:00:00 27.4 8 Norte 20 Este 0 -- -- 28
2019-08-20 18:00:00 27.7 9 Noroeste 23 Nordeste 0 -- -- 30
2019-08-20 17:00:00 26.8 9 Norte 21 Nordeste 0 -- -- 31
2019-08-20 16:00:00 25.9 11 Nordeste 22 Norte 0 -- -- 36
2019-08-20 15:00:00 25.1 11 Nordeste 26 Nordeste 0 -- -- 39
2019-08-20 14:00:00 23.1 11 Nordeste 24 Norte 0 -- -- 47
2019-08-20 13:00:00 21.9 9 Nordeste 22 Nordeste 0 -- -- 53
2019-08-20 12:00:00 19.3 8 Nordeste 22 Nordeste 0 -- -- 61
2019-08-20 11:00:00 17.4 8 Nordeste 20 Nordeste 0 -- -- 67
2019-08-20 10:00:00 15.4 9 Nordeste 17 Nordeste 0 -- -- 74
2019-08-20 09:00:00 14.1 7 Nordeste 13 Norte 0 -- -- 79
2019-08-20 08:00:00 13.1 5 Nordeste 15 Norte 0 -- -- 83
2019-08-20 07:00:00 13.6 9 Norte 14 Norte 0 -- -- 82
2019-08-20 06:00:00 14.4 9 Norte 13 Norte 0 -- -- 77
2019-08-20 05:00:00 14.8 7 Noroeste 12 Noroeste 0 -- -- 74
2019-08-20 04:00:00 15.1 5 Nordeste 19 Norte 0 -- -- 73
2019-08-20 03:00:00 15.7 8 Nordeste 20 Nordeste 0 -- -- 70
2019-08-20 02:00:00 16.6 8 Nordeste 16 Nordeste 0 -- -- 67
2019-08-20 01:00:00 17.2 10 Este 16 Nordeste 0 -- -- 65
2019-08-20 00:00:00 18.1 9 Nordeste 21 Nordeste 0 -- -- 63
2019-08-19 23:00:00 19.7 9 Nordeste 20 Nordeste 0 -- -- 58
2019-08-19 22:00:00 20.8 9 Nordeste 21 Nordeste 0 -- -- 55
2019-08-19 21:00:00 21.6 10 Nordeste 22 Nordeste 0 -- -- 53
2019-08-19 20:00:00 23.7 8 Norte 16 Norte 0 -- -- 47
2019-08-19 19:00:00 23.6 8 Noroeste 16 Noroeste 0 -- -- 44
2019-08-19 18:00:00 23.8 6 Noroeste 18 Noroeste 0 -- -- 43
2019-08-19 17:00:00 25 5 Noroeste 23 Norte 0 -- -- 40
2019-08-19 16:00:00 24.9 10 Noroeste 17 Norte 0 -- -- 45
2019-08-19 15:00:00 23.5 8 Noroeste 21 Noroeste 0 -- -- 49
2019-08-19 14:00:00 22.7 15 Norte 24 Noroeste 0 -- -- 51
2019-08-19 13:00:00 22.5 13 Noroeste 21 Noroeste 0 -- -- 52
2019-08-19 12:00:00 20.8 7 Norte 17 Noroeste 0 -- -- 58
2019-08-19 11:00:00 19.7 5 Norte 13 Sudeste 0 -- -- 63
2019-08-19 10:00:00 17.4 6 Nordeste 10 Este 0 -- -- 72
2019-08-19 09:00:00 15.6 5 Norte 11 Norte 0 -- -- 79
2019-08-19 08:00:00 15.1 7 Norte 12 Norte 0 -- -- 82
2019-08-19 07:00:00 15.3 6 Norte 12 Norte 0 -- -- 81
2019-08-19 06:00:00 15.7 8 Noroeste 13 Norte 0 -- -- 79
2019-08-19 05:00:00 16.5 7 Norte 13 Norte 0 -- -- 76
2019-08-19 04:00:00 17.3 6 Norte 8 Norte 0 -- -- 72
2019-08-19 03:00:00 18.5 6 Norte 15 Noroeste 0 -- -- 67
2019-08-19 02:00:00 19.6 7 Noroeste 14 Noroeste 0 -- -- 58
2019-08-19 01:00:00 21.3 10 Noroeste 17 Noroeste 0 -- -- 52
2019-08-19 00:00:00 21.6 6 Noroeste 10 Noroeste 0 -- -- 55
2019-08-18 23:00:00 23.2 4 Noroeste 11 Norte 0 -- -- 52
2019-08-18 22:00:00 24.2 5 Nordeste 19 Noroeste 0 -- -- 51
2019-08-18 21:00:00 25.5 16 Norte 32 Norte 0 -- -- 48
2019-08-18 20:00:00 27 20 Noroeste 38 Noroeste 0 -- -- 45
2019-08-18 19:00:00 29.6 17 Noroeste 39 Noroeste 0 -- -- 29
2019-08-18 18:00:00 29.9 16 Oeste 34 Noroeste 0 -- -- 30
2019-08-18 17:00:00 28.7 18 Oeste 39 Oeste 0 -- -- 29
2019-08-18 16:00:00 29.4 21 Oeste 37 Noroeste 0 -- -- 26
2019-08-18 15:00:00 28.7 15 Noroeste 31 Noroeste 0 -- -- 29
2019-08-18 14:00:00 25.2 14 Noroeste 28 Noroeste 0 -- -- 40
2019-08-18 13:00:00 25.8 11 Noroeste 24 Noroeste 0 -- -- 34
2019-08-18 12:00:00 24.3 8 Oeste 17 Oeste 0 -- -- 44
2019-08-18 11:00:00 21.9 9 Sudoeste 17 Oeste 0 -- -- 53
2019-08-18 10:00:00 19.8 8 Oeste 17 Oeste 0 -- -- 62
2019-08-18 09:00:00 17.7 5 Sur 13 Oeste 0 -- -- 65
2019-08-18 08:00:00 14.8 4 Sudoeste 8 Sudoeste 0 -- -- 68
2019-08-18 07:00:00 14.9 4 Sudoeste 8 Oeste 0 -- -- 64
2019-08-18 06:00:00 15 5 Sur 11 Sur 0 -- -- 62
2019-08-18 05:00:00 15.6 4 Sudoeste 12 Oeste 0 -- -- 60
2019-08-18 04:00:00 19.4 6 Sudoeste 14 Oeste 0 -- -- 49
2019-08-18 03:00:00 20.2 5 Noroeste 12 Noroeste 0 -- -- 44
2019-08-18 02:00:00 18.8 3 Sudoeste 7 Noroeste 0 -- -- 44
2019-08-18 01:00:00 19.9 6 Sur 11 Sur 0 -- -- 41
2019-08-18 00:00:00 22.5 8 Sur 12 Sur 0 -- -- 34
2019-08-17 23:00:00 25.2 3 Oeste 6 Noroeste 0 -- -- 30
2019-08-17 22:00:00 27.9 5 Noroeste 10 Noroeste 0 -- -- 25
2019-08-17 21:00:00 31 6 Noroeste 24 Noroeste 0 -- -- 22
2019-08-17 20:00:00 33.2 12 Noroeste 26 Noroeste 0 -- -- 21
2019-08-17 19:00:00 33.9 17 Oeste 35 Noroeste 0 -- -- 21
2019-08-17 18:00:00 33.9 15 Noroeste 32 Oeste 0 -- -- 22
2019-08-17 17:00:00 34 14 Noroeste 32 Oeste 0 -- -- 22
2019-08-17 16:00:00 33.3 14 Noroeste 31 Oeste 0 -- -- 25
2019-08-17 15:00:00 32 11 Noroeste 25 Noroeste 0 -- -- 27
2019-08-17 14:00:00 30.9 8 Noroeste 19 Norte 0 -- -- 30
2019-08-17 13:00:00 29.9 8 Noroeste 19 Noroeste 0 -- -- 32
2019-08-17 12:00:00 27.7 4 Oeste 8 Sur 0 -- -- 35
2019-08-17 11:00:00 25.1 3 Sudeste 8 Sur 0 -- -- 42
2019-08-17 10:00:00 22.1 3 Sur 7 Sur 0 -- -- 49
2019-08-17 09:00:00 17.2 3 Sur 12 Sur 0 -- -- 55
2019-08-17 08:00:00 14.2 3 Sur 4 Sur 0 -- -- 61
2019-08-17 07:00:00 15.4 4 Sur 10 Sur 0 -- -- 58
2019-08-17 06:00:00 15.7 7 Sur 14 Sudoeste 0 -- -- 59
2019-08-17 05:00:00 16.6 7 Sur 10 Sur 0 -- -- 58
2019-08-17 04:00:00 17.3 6 Sur 9 Sur 0 -- -- 54
2019-08-17 03:00:00 17.3 5 Sudoeste 11 Sudoeste 0 -- -- 49
2019-08-17 02:00:00 18.6 9 Sur 13 Sur 0 -- -- 41
2019-08-17 01:00:00 19.8 5 Sudoeste 12 Sur 0 -- -- 40
2019-08-17 00:00:00 21.9 8 Sur 10 Sur 0 -- -- 35
2019-08-16 23:00:00 25.3 3 Noroeste 10 Norte 0 -- -- 26
2019-08-16 22:00:00 27.4 5 Noroeste 17 Noroeste 0 -- -- 23
2019-08-16 21:00:00 30.4 13 Noroeste 21 Noroeste 0 -- -- 22
2019-08-16 20:00:00 32.2 13 Noroeste 30 Oeste 0 -- -- 24
2019-08-16 19:00:00 33.1 14 Noroeste 33 Oeste 0 -- -- 23
2019-08-16 18:00:00 33.2 15 Noroeste 33 Oeste 0 -- -- 24
2019-08-16 17:00:00 33 16 Oeste 33 Noroeste 0 -- -- 25
2019-08-16 16:00:00 32.1 15 Oeste 27 Noroeste 0 -- -- 28
2019-08-16 15:00:00 31.2 13 Noroeste 26 Oeste 0 -- -- 31
2019-08-16 14:00:00 29.9 11 Noroeste 20 Noroeste 0 -- -- 34
2019-08-16 13:00:00 27.9 8 Noroeste 17 Norte 0 -- -- 38
2019-08-16 12:00:00 25.4 8 Oeste 16 Oeste 0 -- -- 43
2019-08-16 11:00:00 23.4 8 Oeste 14 Oeste 0 -- -- 47
2019-08-16 10:00:00 21.6 7 Oeste 13 Sudoeste 0 -- -- 51
2019-08-16 09:00:00 17.7 6 Sur 10 Sur 0 -- -- 61
2019-08-16 08:00:00 14.6 5 Sur 10 Sur 0 -- -- 67
2019-08-16 07:00:00 14.9 8 Sur 10 Sur 0 -- -- 69
2019-08-16 06:00:00 15.5 6 Sur 14 Sudoeste 0 -- -- 68
2019-08-16 05:00:00 17.5 2 Nordeste 6 Norte 0 -- -- 59
2019-08-16 04:00:00 19.2 4 Norte 11 Noroeste 0 -- -- 55
2019-08-16 03:00:00 20.8 8 Noroeste 18 Noroeste 0 -- -- 50
2019-08-16 02:00:00 22.2 6 Sudeste 14 Sudeste 0 -- -- 47
2019-08-16 01:00:00 22.5 7 Sudeste 13 Sudeste 0 -- -- 47
2019-08-16 00:00:00 23 3 Este 14 Este 0 -- -- 46
2019-08-15 23:00:00 24.8 7 Nordeste 15 Nordeste 0 -- -- 39
2019-08-15 22:00:00 26.8 6 Norte 13 Norte 0 -- -- 34
2019-08-15 21:00:00 29.2 8 Norte 18 Norte 0 -- -- 30
2019-08-15 20:00:00 30.7 12 Norte 21 Norte 0 -- -- 29
2019-08-15 19:00:00 31.6 10 Noroeste 21 Noroeste 0 -- -- 27
2019-08-15 18:00:00 31.4 12 Norte 22 Norte 0 -- -- 28
2019-08-15 17:00:00 31.5 9 Oeste 22 Noroeste 0 -- -- 28
2019-08-15 16:00:00 30.9 10 Noroeste 22 Noroeste 0 -- -- 28
2019-08-15 15:00:00 30.2 7 Norte 21 Este 0 -- -- 29
2019-08-15 14:00:00 28.7 10 Nordeste 20 Este 0 -- -- 28
2019-08-15 13:00:00 27.1 10 Este 19 Este 0 -- -- 34
2019-08-15 12:00:00 25.1 4 Norte 12 Noroeste 0 -- -- 46
2019-08-15 11:00:00 22.8 6 Noroeste 11 Norte 0 -- -- 51
2019-08-15 10:00:00 20.7 3 Sudoeste 8 Noroeste 0 -- -- 56
2019-08-15 09:00:00 17.9 6 Norte 11 Norte 0 -- -- 66
2019-08-15 08:00:00 16.1 5 Noroeste 11 Noroeste 0 -- -- 73
2019-08-15 07:00:00 16.8 4 Oeste 9 Oeste 0 -- -- 70
2019-08-15 06:00:00 18.2 4 Noroeste 17 Oeste 0 -- -- 67
2019-08-15 05:00:00 19 10 Oeste 18 Noroeste 0 -- -- 65
2019-08-15 04:00:00 18.2 7 Sudoeste 14 Sur 0 -- -- 69
2019-08-15 03:00:00 20.4 5 Noroeste 18 Noroeste 0 -- -- 61
2019-08-15 02:00:00 22 16 Noroeste 27 Noroeste 0 -- -- 54
2019-08-15 01:00:00 22.3 12 Noroeste 20 Noroeste 0 -- -- 48
2019-08-15 00:00:00 20.8 3 Sudoeste 8 Sur 0 -- -- 45
2019-08-14 23:00:00 24.1 2 Sur 5 Sudeste 0 -- -- 34
2019-08-14 22:00:00 26.6 0 Calma 10 Norte 0 -- -- 31
2019-08-14 21:00:00 28.8 8 Norte 16 Norte 0 -- -- 27
2019-08-14 20:00:00 30.1 7 Noroeste 17 Norte 0 -- -- 24
2019-08-14 19:00:00 30.8 6 Noroeste 26 Noroeste 0 -- -- 24
2019-08-14 18:00:00 30.5 10 Noroeste 23 Noroeste 0 -- -- 24
2019-08-14 17:00:00 30.4 10 Noroeste 23 Norte 0 -- -- 23
2019-08-14 16:00:00 30.1 7 Noroeste 22 Oeste 0 -- -- 22
2019-08-14 15:00:00 29 9 Noroeste 22 Oeste 0 -- -- 22
2019-08-14 14:00:00 28 11 Noroeste 21 Noroeste 0 -- -- 22
2019-08-14 13:00:00 26.9 8 Oeste 19 Norte 0 -- -- 23
2019-08-14 12:00:00 25.2 8 Noroeste 14 Oeste 0 -- -- 25
2019-08-14 11:00:00 23.3 6 Oeste 11 Oeste 0 -- -- 27
2019-08-14 10:00:00 19.2 3 Sudoeste 7 Sur 0 -- -- 35
2019-08-14 09:00:00 14.2 5 Sur 12 Sur 0 -- -- 44
2019-08-14 08:00:00 11 7 Sur 11 Sur 0 -- -- 49
2019-08-14 07:00:00 9.9 4 Noroeste 8 Norte 0 -- -- 53
2019-08-14 06:00:00 10.4 6 Sur 12 Sur 0 -- -- 51
2019-08-14 05:00:00 11 8 Sur 13 Sur 0 -- -- 48
2019-08-14 04:00:00 11.7 9 Sur 12 Sur 0 -- -- 46
2019-08-14 03:00:00 12.1 8 Sur 12 Sur 0 -- -- 48
2019-08-14 02:00:00 13.8 8 Sur 12 Sur 0 -- -- 45
2019-08-14 01:00:00 14.8 7 Sur 10 Sur 0 -- -- 48
2019-08-14 00:00:00 17.5 0 Calma 6 Noroeste 0 -- -- 37
2019-08-13 23:00:00 19.7 0 Calma 8 Norte 0 -- -- 32
2019-08-13 22:00:00 21.7 5 Noroeste 14 Noroeste 0 -- -- 29
2019-08-13 21:00:00 24.3 9 Norte 19 Noroeste 0 -- -- 24
2019-08-13 20:00:00 25.7 10 Norte 21 Norte 0 -- -- 22
2019-08-13 19:00:00 26.4 11 Norte 23 Norte 0 -- -- 22
2019-08-13 18:00:00 26.6 13 Noroeste 25 Norte 0 -- -- 22
2019-08-13 17:00:00 26.1 7 Noroeste 21 Norte 0 -- -- 21
2019-08-13 16:00:00 25.8 8 Noroeste 19 Noroeste 0 -- -- 23
2019-08-13 15:00:00 24.7 10 Noroeste 16 Noroeste 0 -- -- 27
2019-08-13 14:00:00 23.5 9 Este 18 Este 0 -- -- 30
2019-08-13 13:00:00 21.5 9 Este 17 Nordeste 0 -- -- 34
2019-08-13 12:00:00 19.7 9 Este 14 Nordeste 0 -- -- 41
2019-08-13 11:00:00 16.8 5 Este 11 Este 0 -- -- 54
2019-08-13 10:00:00 14.2 3 Nordeste 9 Este 0 -- -- 62
2019-08-13 09:00:00 12.1 0 Calma 4 Sur 0 -- -- 67
2019-08-13 08:00:00 8.4 0 Calma 3 Oeste 0 -- -- 78
2019-08-13 07:00:00 8.7 0 Calma 5 Oeste 0 -- -- 79
2019-08-13 06:00:00 10.2 2 Sudeste 5 Nordeste 0 -- -- 74
2019-08-13 05:00:00 11.1 5 Nordeste 13 Nordeste 0 -- -- 72
2019-08-13 04:00:00 11.9 6 Nordeste 15 Este 0 -- -- 68
2019-08-13 03:00:00 12.8 6 Nordeste 17 Nordeste 0 -- -- 65
2019-08-13 02:00:00 14.4 9 Nordeste 20 Nordeste 0 -- -- 59
2019-08-13 01:00:00 15.8 9 Nordeste 20 Nordeste 0 -- -- 54
2019-08-13 00:00:00 17.2 11 Nordeste 20 Este 0 -- -- 46
2019-08-12 23:00:00 18.6 11 Nordeste 22 Este 0 -- -- 39
2019-08-12 22:00:00 19.6 13 Este 25 Nordeste 0 -- -- 34
2019-08-12 21:00:00 21.3 8 Nordeste 15 Nordeste 0 -- -- 31
2019-08-12 20:00:00 22.4 7 Norte 22 Nordeste 0 -- -- 29
2019-08-12 19:00:00 23.3 8 Nordeste 18 Norte 0 -- -- 27
2019-08-12 18:00:00 23.4 8 Norte 21 Este 0 -- -- 28
2019-08-12 17:00:00 23.2 10 Este 21 Nordeste 0 -- -- 28
2019-08-12 16:00:00 22.5 10 Este 27 Sudeste 0 -- -- 27
2019-08-12 15:00:00 21.1 7 Nordeste 24 Nordeste 0 -- -- 30
2019-08-12 14:00:00 20 12 Nordeste 24 Nordeste 0 -- -- 37
2019-08-12 13:00:00 18.9 11 Nordeste 24 Norte 0 -- -- 40
2019-08-12 12:00:00 17 9 Nordeste 19 Nordeste 0 -- -- 49
2019-08-12 11:00:00 15.6 11 Nordeste 18 Nordeste 0 -- -- 56
2019-08-12 10:00:00 13.7 9 Nordeste 15 Nordeste 0 -- -- 64
2019-08-12 09:00:00 11.9 5 Norte 10 Norte 0 -- -- 74
2019-08-12 08:00:00 8.9 0 Calma 5 Norte 0 -- -- 81
2019-08-12 07:00:00 9.4 2 Nordeste 13 Noroeste 0 -- -- 81
2019-08-12 06:00:00 9.8 6 Norte 11 Noroeste 0 -- -- 81
2019-08-12 05:00:00 10.2 9 Norte 12 Norte 0 -- -- 79
2019-08-12 04:00:00 10.9 7 Norte 11 Norte 0 -- -- 76
2019-08-12 03:00:00 12 4 Noroeste 13 Norte 0 -- -- 72
2019-08-12 02:00:00 13 9 Noroeste 20 Noroeste 0 -- -- 65
2019-08-12 01:00:00 14.2 14 Noroeste 21 Norte 0 -- -- 58
2019-08-12 00:00:00 15.5 13 Noroeste 33 Norte 0 -- -- 50
2019-08-11 23:00:00 17.4 19 Norte 35 Noroeste 0 -- -- 45
2019-08-11 22:00:00 18.9 9 Noroeste 26 Noroeste 0 -- -- 35
2019-08-11 21:00:00 21.4 10 Noroeste 28 Oeste 0 -- -- 30
2019-08-11 20:00:00 22.7 11 Noroeste 29 Oeste 0 -- -- 28
2019-08-11 19:00:00 23.4 15 Noroeste 32 Noroeste 0 -- -- 29
2019-08-11 18:00:00 23.5 19 Noroeste 42 Noroeste 0 -- -- 30
2019-08-11 17:00:00 23.7 14 Noroeste 29 Oeste 0 -- -- 33
2019-08-11 16:00:00 22.5 14 Noroeste 32 Oeste 0 -- -- 39
2019-08-11 15:00:00 22 16 Noroeste 31 Noroeste 0 -- -- 45
2019-08-11 14:00:00 21.5 15 Noroeste 31 Noroeste 0 -- -- 50
2019-08-11 13:00:00 20.7 14 Noroeste 27 Oeste 0 -- -- 54
2019-08-11 12:00:00 19.4 14 Noroeste 26 Oeste 0 -- -- 60
2019-08-11 11:00:00 18.8 13 Noroeste 23 Noroeste 0 -- -- 65
2019-08-11 10:00:00 18.5 8 Oeste 16 Oeste 0 -- -- 65
2019-08-11 09:00:00 16.9 0 Calma 5 Sudoeste 0 -- -- 70
2019-08-11 08:00:00 14 2 Sudoeste 6 Sudeste 0 -- -- 81
2019-08-11 07:00:00 14.8 4 Sudeste 9 Norte 0 -- -- 78
2019-08-11 06:00:00 15.6 8 Norte 19 Noroeste 0 -- -- 75
2019-08-11 05:00:00 17 10 Norte 28 Noroeste 0 -- -- 64
2019-08-11 04:00:00 17.9 16 Noroeste 31 Oeste 0 -- -- 55
2019-08-11 03:00:00 18.8 9 Noroeste 17 Noroeste 0 -- -- 50
2019-08-11 02:00:00 20.3 8 Noroeste 14 Noroeste 0 -- -- 40
2019-08-11 01:00:00 21 6 Norte 10 Norte 0 -- -- 39
2019-08-11 00:00:00 21.7 5 Noroeste 16 Norte 0 -- -- 37
2019-08-10 23:00:00 22.4 10 Norte 17 Norte 0 -- -- 36
2019-08-10 22:00:00 23.9 11 Norte 17 Norte 0 -- -- 38
2019-08-10 21:00:00 25.1 8 Noroeste 22 Noroeste 0 -- -- 34
2019-08-10 20:00:00 27 13 Noroeste 25 Noroeste 0 -- -- 31
2019-08-10 19:00:00 27.9 12 Noroeste 24 Norte 0 -- -- 27
2019-08-10 18:00:00 27.7 11 Noroeste 23 Oeste 0 -- -- 28
2019-08-10 17:00:00 28.1 8 Noroeste 22 Noroeste 0 -- -- 27
2019-08-10 16:00:00 27.1 9 Noroeste 20 Noroeste 0 -- -- 29
2019-08-10 15:00:00 25.3 5 Sudoeste 14 Oeste 0 -- -- 34
2019-08-10 14:00:00 22.9 4 Nordeste 15 Sur 0 -- -- 45
2019-08-10 13:00:00 21.8 4 Sur 14 Este 0 -- -- 52
2019-08-10 12:00:00 20.2 5 Sudoeste 12 Oeste 0 -- -- 59
2019-08-10 11:00:00 18.4 3 Norte 9 Norte 0 -- -- 64
2019-08-10 10:00:00 16.5 3 Noroeste 8 Sur 0 -- -- 75
2019-08-10 09:00:00 12.7 5 Sur 9 Sur 0 -- -- 87
2019-08-10 08:00:00 10.9 3 Sudoeste 13 Sur 0 -- -- 93
2019-08-10 07:00:00 10.4 4 Sur 10 Sur 0 -- -- 92
2019-08-10 06:00:00 11.4 6 Sur 9 Sur 0 -- -- 91
2019-08-10 05:00:00 12.7 3 Sur 7 Oeste 0 -- -- 86
2019-08-10 04:00:00 13.3 2 Sudoeste 10 Oeste 0 -- -- 86
2019-08-10 03:00:00 14 6 Noroeste 11 Oeste 0 -- -- 85
2019-08-10 02:00:00 15.2 6 Noroeste 19 Noroeste 0 -- -- 85
2019-08-10 01:00:00 15 3 Sudoeste 11 Sur 0 -- -- 87
2019-08-10 00:00:00 16.2 7 Sur 11 Sur 0 -- -- 85
2019-08-09 23:00:00 16.9 7 Sudoeste 11 Sudoeste 0 -- -- 85
2019-08-09 22:00:00 17.7 6 Sudoeste 14 Sudoeste 0 -- -- 84
2019-08-09 21:00:00 18.7 8 Sur 31 Sudoeste 0 -- -- 82
2019-08-09 20:00:00 17.7 18 Sudoeste 41 Oeste 0.2 -- -- 86
2019-08-09 19:00:00 16.2 20 Oeste 48 Oeste 0.8 -- -- 90
2019-08-09 18:00:00 19.1 28 Oeste 53 Oeste 0 -- -- 82
2019-08-09 17:00:00 24.3 28 Oeste 52 Oeste 0 -- -- 57
2019-08-09 16:00:00 24.9 24 Oeste 45 Oeste 0 -- -- 61
2019-08-09 15:00:00 24.2 27 Oeste 45 Oeste 0 -- -- 63
2019-08-09 14:00:00 25.3 21 Oeste 39 Oeste 0 -- -- 59
2019-08-09 13:00:00 24.8 24 Noroeste 46 Oeste 0 -- -- 61
2019-08-09 12:00:00 25.6 33 Oeste 53 Oeste 0 -- -- 58
2019-08-09 11:00:00 24.7 30 Oeste 52 Oeste 0 -- -- 61
2019-08-09 10:00:00 23.7 28 Sudoeste 47 Sudoeste 0 -- -- 64
2019-08-09 09:00:00 21.9 20 Oeste 31 Oeste 0 -- -- 67
2019-08-09 08:00:00 19.7 13 Oeste 23 Oeste 0 -- -- 70
2019-08-09 07:00:00 18.6 6 Sudoeste 12 Oeste 0 -- -- 74
2019-08-09 06:00:00 18.8 8 Sur 26 Sudoeste 0 -- -- 75
2019-08-09 05:00:00 20.2 16 Sudoeste 30 Oeste 0 -- -- 71
2019-08-09 04:00:00 20.6 9 Sudoeste 22 Sudoeste 0 -- -- 68
2019-08-09 03:00:00 21.3 10 Oeste 17 Sudoeste 0 -- -- 66
2019-08-09 02:00:00 21.9 10 Sudoeste 28 Oeste 0 -- -- 64
2019-08-09 01:00:00 23.2 15 Oeste 26 Oeste 0 -- -- 60
2019-08-09 00:00:00 24 17 Oeste 30 Oeste 0 -- -- 56
2019-08-08 23:00:00 25.3 18 Oeste 35 Sudoeste 0 -- -- 51
2019-08-08 22:00:00 26.5 16 Oeste 35 Oeste 0 -- -- 44
2019-08-08 21:00:00 28.2 20 Oeste 45 Oeste 0 -- -- 40
2019-08-08 20:00:00 29.7 23 Oeste 47 Noroeste 0 -- -- 37
2019-08-08 19:00:00 30.7 24 Oeste 46 Oeste 0 -- -- 35
2019-08-08 18:00:00 31.6 26 Oeste 46 Oeste 0 -- -- 33
2019-08-08 17:00:00 31.8 23 Oeste 44 Oeste 0 -- -- 32
2019-08-08 16:00:00 31.5 24 Oeste 42 Sudoeste 0 -- -- 36
2019-08-08 15:00:00 30.8 18 Sudoeste 39 Oeste 0 -- -- 37
2019-08-08 14:00:00 29.1 18 Oeste 35 Oeste 0 -- -- 41
2019-08-08 13:00:00 27.6 17 Oeste 30 Sudoeste 0 -- -- 45
2019-08-08 12:00:00 26.5 16 Sudoeste 28 Sudoeste 0 -- -- 48
2019-08-08 11:00:00 24.5 12 Sudoeste 20 Sudoeste 0 -- -- 52
2019-08-08 10:00:00 21.7 10 Sur 14 Sur 0 -- -- 57
2019-08-08 09:00:00 19.8 4 Sur 10 Sur 0 -- -- 61
2019-08-08 08:00:00 18.7 6 Sur 10 Sur 0 -- -- 64
2019-08-08 07:00:00 17.4 0 Calma 11 Sur 0 -- -- 69
2019-08-08 06:00:00 19 0 Calma 13 Sudoeste 0 -- -- 63
2019-08-08 05:00:00 19.8 7 Sudoeste 21 Oeste 0 -- -- 60
2019-08-08 04:00:00 20.5 13 Oeste 21 Sudoeste 0 -- -- 58
2019-08-08 03:00:00 20.3 13 Oeste 27 Sudoeste 0 -- -- 61
2019-08-08 02:00:00 18.5 7 Sudoeste 14 Sudoeste 0 -- -- 64
2019-08-08 01:00:00 19.3 9 Sudoeste 14 Sudoeste 0 -- -- 60
2019-08-08 00:00:00 19.9 5 Sudoeste 14 Sudoeste 0 -- -- 57
2019-08-07 23:00:00 21.6 7 Sudoeste 13 Sudoeste 0 -- -- 50
2019-08-07 22:00:00 22.8 9 Sudoeste 21 Oeste 0 -- -- 48
2019-08-07 21:00:00 23.8 14 Oeste 26 Sudoeste 0 -- -- 46
2019-08-07 20:00:00 24.7 15 Oeste 29 Sudoeste 0 -- -- 43
2019-08-07 19:00:00 24.7 19 Oeste 32 Sudoeste 0 -- -- 39
2019-08-07 18:00:00 25.3 21 Oeste 36 Oeste 0 -- -- 39
2019-08-07 17:00:00 25.5 16 Oeste 24 Oeste 0 -- -- 45
2019-08-07 16:00:00 25.7 15 Oeste 32 Oeste 0 -- -- 44
2019-08-07 15:00:00 26.4 12 Sudoeste 26 Sudoeste 0 -- -- 41
2019-08-07 14:00:00 25.4 10 Sudoeste 24 Sudoeste 0 -- -- 49
2019-08-07 13:00:00 24.6 7 Sudoeste 15 Sudoeste 0 -- -- 52
2019-08-07 12:00:00 24 6 Sudoeste 14 Oeste 0 -- -- 55
2019-08-07 11:00:00 22.5 10 Oeste 17 Oeste 0 -- -- 58
2019-08-07 10:00:00 21.1 8 Oeste 15 Oeste 0 -- -- 64
2019-08-07 09:00:00 20 7 Oeste 12 Oeste 0 -- -- 66
2019-08-07 08:00:00 18.6 2 Oeste 11 Noroeste 0 -- -- 66
2019-08-07 07:00:00 19 5 Noroeste 12 Oeste 0 -- -- 64
2019-08-07 06:00:00 20 5 Oeste 10 Noroeste 0 -- -- 61
2019-08-07 05:00:00 20.4 0 Calma 7 Sudoeste 0 -- -- 59
2019-08-07 04:00:00 21.4 3 Sudoeste 13 Noroeste 0 -- -- 55
2019-08-07 03:00:00 22.2 9 Noroeste 21 Oeste 0 -- -- 52
2019-08-07 02:00:00 22.8 6 Noroeste 16 Noroeste 0 -- -- 49
2019-08-07 01:00:00 23.5 7 Oeste 12 Norte 0 -- -- 47
2019-08-07 00:00:00 24.1 9 Norte 22 Noroeste 0 -- -- 44
2019-08-06 23:00:00 25.1 12 Norte 26 Noroeste 0 -- -- 41
2019-08-06 22:00:00 26.9 18 Noroeste 28 Noroeste 0 -- -- 36
2019-08-06 21:00:00 28.9 14 Noroeste 24 Noroeste 0 -- -- 31
2019-08-06 20:00:00 30.6 14 Noroeste 27 Norte 0 -- -- 30
2019-08-06 19:00:00 31.1 11 Noroeste 31 Oeste 0 -- -- 30
2019-08-06 18:00:00 32.1 14 Noroeste 32 Oeste 0 -- -- 28
2019-08-06 17:00:00 32.2 14 Noroeste 28 Noroeste 0 -- -- 27
2019-08-06 16:00:00 31.9 15 Oeste 27 Oeste 0 -- -- 26
2019-08-06 15:00:00 31.5 11 Noroeste 26 Oeste 0 -- -- 28
2019-08-06 14:00:00 30.4 7 Noroeste 18 Noroeste 0 -- -- 32
2019-08-06 13:00:00 28.6 6 Noroeste 13 Oeste 0 -- -- 39
2019-08-06 12:00:00 27.7 4 Sur 10 Noroeste 0 -- -- 43
2019-08-06 11:00:00 24.9 6 Oeste 10 Oeste 0 -- -- 50
2019-08-06 10:00:00 22.7 5 Oeste 13 Sudoeste 0 -- -- 55
2019-08-06 09:00:00 19.2 8 Sur 12 Sur 0 -- -- 59
2019-08-06 08:00:00 18 6 Sudoeste 14 Oeste 0 -- -- 63
2019-08-06 07:00:00 18.7 10 Oeste 28 Noroeste 0 -- -- 59
2019-08-06 06:00:00 18.6 7 Sudoeste 15 Oeste 0 -- -- 55
2019-08-06 05:00:00 18.8 4 Sur 24 Oeste 0 -- -- 52
2019-08-06 04:00:00 20.5 8 Oeste 13 Sudoeste 0 -- -- 48
2019-08-06 03:00:00 20.9 7 Oeste 11 Oeste 0 -- -- 46
2019-08-06 02:00:00 19.4 4 Sudoeste 11 Sur 0 -- -- 50
2019-08-06 01:00:00 22.6 5 Sur 8 Sur 0 -- -- 41
2019-08-06 00:00:00 24.5 3 Noroeste 10 Oeste 0 -- -- 36
2019-08-05 23:00:00 25.5 4 Noroeste 10 Norte 0 -- -- 36
2019-08-05 22:00:00 27.9 4 Noroeste 18 Noroeste 0 -- -- 28
2019-08-05 21:00:00 31 8 Noroeste 23 Noroeste 0 -- -- 23
2019-08-05 20:00:00 32.3 16 Noroeste 37 Noroeste 0 -- -- 21
2019-08-05 19:00:00 33.1 15 Noroeste 33 Noroeste 0 -- -- 21
2019-08-05 18:00:00 33.6 14 Noroeste 31 Oeste 0 -- -- 20
2019-08-05 17:00:00 33.1 17 Oeste 31 Oeste 0 -- -- 22
2019-08-05 16:00:00 32.7 15 Noroeste 30 Oeste 0 -- -- 22
2019-08-05 15:00:00 31.6 12 Oeste 27 Oeste 0 -- -- 24
2019-08-05 14:00:00 30.8 10 Oeste 22 Oeste 0 -- -- 25
2019-08-05 13:00:00 28.7 6 Norte 13 Norte 0 -- -- 36
2019-08-05 12:00:00 26.9 4 Sudoeste 9 Oeste 0 -- -- 42
2019-08-05 11:00:00 24.6 4 Oeste 9 Oeste 0 -- -- 47
2019-08-05 10:00:00 21.6 5 Oeste 9 Noroeste 0 -- -- 57
2019-08-05 09:00:00 18.9 3 Sudoeste 9 Sur 0 -- -- 65
2019-08-05 08:00:00 16.2 4 Sur 8 Sur 0 -- -- 67
2019-08-05 07:00:00 17.7 3 Sur 12 Oeste 0 -- -- 67
2019-08-05 06:00:00 18.5 5 Oeste 14 Oeste 0 -- -- 64
2019-08-05 05:00:00 19.3 7 Oeste 18 Oeste 0 -- -- 58
2019-08-05 04:00:00 19.8 7 Oeste 13 Noroeste 0 -- -- 51
2019-08-05 03:00:00 20.6 4 Oeste 11 Oeste 0 -- -- 45
2019-08-05 02:00:00 19.8 3 Sudoeste 9 Sur 0 -- -- 49
2019-08-05 01:00:00 21.3 6 Sur 9 Sur 0 -- -- 45
2019-08-05 00:00:00 24.3 3 Sudoeste 9 Noroeste 0 -- -- 34
2019-08-04 23:00:00 25.8 5 Noroeste 12 Noroeste 0 -- -- 31
2019-08-04 22:00:00 28.3 10 Norte 15 Norte 0 -- -- 29
2019-08-04 21:00:00 30.9 10 Noroeste 24 Noroeste 0 -- -- 27
2019-08-04 20:00:00 32.3 15 Noroeste 31 Norte 0 -- -- 25
2019-08-04 19:00:00 32.8 14 Noroeste 31 Noroeste 0 -- -- 24
2019-08-04 18:00:00 32.9 16 Noroeste 34 Noroeste 0 -- -- 24
2019-08-04 17:00:00 32.9 13 Noroeste 27 Oeste 0 -- -- 23
2019-08-04 16:00:00 32.8 13 Noroeste 26 Oeste 0 -- -- 25
2019-08-04 15:00:00 31.9 11 Sudoeste 24 Oeste 0 -- -- 26
2019-08-04 14:00:00 30.4 7 Oeste 15 Oeste 0 -- -- 32
2019-08-04 13:00:00 28.5 5 Norte 14 Oeste 0 -- -- 40
2019-08-04 12:00:00 26.1 7 Oeste 15 Noroeste 0 -- -- 47
2019-08-04 11:00:00 24 8 Oeste 18 Sudoeste 0 -- -- 53
2019-08-04 10:00:00 22.1 8 Oeste 14 Noroeste 0 -- -- 58
2019-08-04 09:00:00 20.5 7 Oeste 14 Oeste 0 -- -- 62
2019-08-04 08:00:00 17.8 3 Oeste 11 Sudoeste 0 -- -- 67
2019-08-04 07:00:00 18 6 Sudoeste 14 Sudoeste 0 -- -- 64
2019-08-04 06:00:00 19.4 7 Sudoeste 19 Oeste 0 -- -- 61
2019-08-04 05:00:00 20.1 6 Oeste 26 Oeste 0 -- -- 57
2019-08-04 04:00:00 21.1 16 Oeste 29 Oeste 0 -- -- 51
2019-08-04 03:00:00 22.1 12 Oeste 23 Sudoeste 0 -- -- 44
2019-08-04 02:00:00 21.9 5 Oeste 16 Oeste 0 -- -- 42
2019-08-04 01:00:00 21.8 7 Sur 11 Sur 0 -- -- 43
2019-08-04 00:00:00 25.4 3 Noroeste 12 Noroeste 0 -- -- 33
2019-08-03 23:00:00 26.5 5 Noroeste 18 Oeste 0 -- -- 32
2019-08-03 22:00:00 28.2 11 Oeste 18 Noroeste 0 -- -- 29
2019-08-03 21:00:00 31.4 13 Noroeste 23 Noroeste 0 -- -- 23
2019-08-03 20:00:00 32.9 12 Noroeste 27 Oeste 0 -- -- 17
2019-08-03 19:00:00 33.3 14 Oeste 34 Oeste 0 -- -- 20
2019-08-03 18:00:00 34 14 Noroeste 35 Oeste 0 -- -- 20
2019-08-03 17:00:00 34.3 14 Noroeste 30 Oeste 0 -- -- 19
2019-08-03 16:00:00 33.7 9 Sudoeste 30 Oeste 0 -- -- 18
2019-08-03 15:00:00 33.1 8 Oeste 26 Oeste 0 -- -- 18
2019-08-03 14:00:00 32.2 12 Oeste 25 Noroeste 0 -- -- 20
2019-08-03 13:00:00 30.5 12 Oeste 28 Noroeste 0 -- -- 23
2019-08-03 12:00:00 28.5 7 Noroeste 18 Noroeste 0 -- -- 30
2019-08-03 11:00:00 25.6 8 Oeste 13 Oeste 0 -- -- 36
2019-08-03 10:00:00 23.1 9 Oeste 15 Noroeste 0 -- -- 38
2019-08-03 09:00:00 17.8 6 Sur 12 Sur 0 -- -- 49
2019-08-03 08:00:00 14.8 5 Sur 12 Sur 0 -- -- 50
2019-08-03 07:00:00 13.2 7 Sur 12 Sudoeste 0 -- -- 60
2019-08-03 06:00:00 13.9 9 Sur 12 Sur 0 -- -- 55
2019-08-03 05:00:00 14.9 8 Sur 11 Sur 0 -- -- 48
2019-08-03 04:00:00 16.3 2 Sur 12 Sur 0 -- -- 46
2019-08-03 03:00:00 17.6 3 Sur 5 Sur 0 -- -- 49
2019-08-03 02:00:00 18.9 0 Calma 4 Sudeste 0 -- -- 42
2019-08-03 01:00:00 20.4 3 Sur 6 Oeste 0 -- -- 43
2019-08-03 00:00:00 22.5 5 Oeste 10 Sudeste 0 -- -- 38
2019-08-02 23:00:00 25.9 4 Norte 9 Noroeste 0 -- -- 26
2019-08-02 22:00:00 28 5 Noroeste 16 Noroeste 0 -- -- 23
2019-08-02 21:00:00 30.7 11 Noroeste 19 Noroeste 0 -- -- 20
2019-08-02 20:00:00 31.9 13 Noroeste 25 Norte 0 -- -- 21
2019-08-02 19:00:00 33.1 10 Noroeste 20 Noroeste 0 -- -- 20
2019-08-02 18:00:00 33.3 12 Noroeste 24 Noroeste 0 -- -- 20
2019-08-02 17:00:00 32.9 13 Norte 24 Norte 0 -- -- 20
2019-08-02 16:00:00 32.3 7 Norte 23 Noroeste 0 -- -- 20
2019-08-02 15:00:00 31.7 12 Norte 27 Norte 0 -- -- 23
2019-08-02 14:00:00 30.3 6 Norte 16 Nordeste 0 -- -- 27
2019-08-02 13:00:00 28.1 7 Este 17 Este 0 -- -- 38
2019-08-02 12:00:00 25.7 7 Este 13 Este 0 -- -- 47
2019-08-02 11:00:00 22.8 4 Este 11 Sudeste 0 -- -- 54
2019-08-02 10:00:00 19.7 2 Sudoeste 6 Sudoeste 0 -- -- 60
2019-08-02 09:00:00 15.2 4 Sur 7 Sur 0 -- -- 63
2019-08-02 08:00:00 12.9 3 Sur 4 Sudeste 0 -- -- 64
2019-08-02 07:00:00 12.4 2 Sur 7 Sur 0 -- -- 68
2019-08-02 06:00:00 13.4 0 Calma 3 Este 0 -- -- 65
2019-08-02 05:00:00 14.9 0 Calma 4 Oeste 0 -- -- 75
2019-08-02 04:00:00 16.6 2 Este 6 Norte 0 -- -- 71
2019-08-02 03:00:00 17.8 6 Norte 10 Norte 0 -- -- 66
2019-08-02 02:00:00 18.8 2 Noroeste 7 Nordeste 0 -- -- 48
2019-08-02 01:00:00 20.6 3 Este 10 Nordeste 0 -- -- 47
2019-08-02 00:00:00 21.2 3 Oeste 6 Oeste 0 -- -- 39
2019-08-01 23:00:00 24.2 2 Norte 9 Norte 0 -- -- 34
2019-08-01 22:00:00 26.6 5 Norte 17 Noroeste 0 -- -- 30
2019-08-01 21:00:00 28.9 9 Norte 21 Noroeste 0 -- -- 26
2019-08-01 20:00:00 30.2 10 Noroeste 26 Oeste 0 -- -- 23
2019-08-01 19:00:00 31 11 Noroeste 23 Noroeste 0 -- -- 22
2019-08-01 18:00:00 30.6 12 Noroeste 25 Oeste 0 -- -- 23
2019-08-01 17:00:00 30.7 14 Noroeste 30 Oeste 0 -- -- 24
2019-08-01 16:00:00 29.8 11 Oeste 24 Oeste 0 -- -- 26
2019-08-01 15:00:00 29 11 Noroeste 24 Noroeste 0 -- -- 28
2019-08-01 14:00:00 28.3 11 Noroeste 32 Noroeste 0 -- -- 30
2019-08-01 13:00:00 26 9 Noroeste 20 Noroeste 0 -- -- 39
2019-08-01 12:00:00 23.7 12 Noroeste 23 Noroeste 0 -- -- 47
2019-08-01 11:00:00 21.3 12 Noroeste 20 Oeste 0 -- -- 54
2019-08-01 10:00:00 18.8 11 Oeste 17 Oeste 0 -- -- 62
2019-08-01 09:00:00 16.5 9 Oeste 16 Oeste 0 -- -- 68
2019-08-01 08:00:00 14.6 4 Sur 9 Noroeste 0 -- -- 72
2019-08-01 07:00:00 15.2 3 Noroeste 6 Oeste 0 -- -- 68
2019-08-01 06:00:00 17 2 Sudoeste 8 Noroeste 0 -- -- 61
2019-08-01 05:00:00 17.9 4 Noroeste 9 Noroeste 0 -- -- 56
2019-08-01 04:00:00 18.9 4 Noroeste 9 Norte 0 -- -- 52
2019-08-01 03:00:00 19.3 4 Oeste 9 Sur 0 -- -- 55
2019-08-01 02:00:00 21 3 Norte 15 Sudeste 0 -- -- 46
2019-08-01 01:00:00 21.4 8 Noroeste 12 Noroeste 0 -- -- 45
2019-08-01 00:00:00 22.5 4 Nordeste 9 Nordeste 0 -- -- 43
2019-07-31 23:00:00 23.7 5 Nordeste 19 Nordeste 0 -- -- 40
2019-07-31 22:00:00 25.6 8 Nordeste 20 Norte 0 -- -- 36
2019-07-31 21:00:00 27.1 13 Norte 26 Norte 0 -- -- 32
2019-07-31 20:00:00 28.1 16 Norte 31 Norte 0 -- -- 31
2019-07-31 19:00:00 29.5 22 Norte 36 Oeste 0 -- -- 30
2019-07-31 18:00:00 32.1 14 Sur 31 Sur 0 -- -- 21
2019-07-31 17:00:00 31.3 10 Nordeste 23 Este 0 -- -- 30
2019-07-31 16:00:00 30.3 10 Nordeste 22 Nordeste 0 -- -- 32
2019-07-31 15:00:00 28.6 8 Norte 20 Norte 0 -- -- 35
2019-07-31 14:00:00 26.5 10 Nordeste 19 Nordeste 0 -- -- 39
2019-07-31 13:00:00 25.1 9 Nordeste 18 Nordeste 0 -- -- 40
2019-07-31 12:00:00 22.5 9 Nordeste 18 Este 0 -- -- 43
2019-07-31 11:00:00 18.7 9 Nordeste 14 Este 0 -- -- 51
2019-07-31 10:00:00 16.1 8 Nordeste 14 Nordeste 0 -- -- 59
2019-07-31 09:00:00 12.8 4 Norte 11 Sur 0 -- -- 69
2019-07-31 08:00:00 9.8 8 Norte 11 Norte 0 -- -- 77
2019-07-31 07:00:00 9.9 2 Sur 5 Sudeste 0 -- -- 74
2019-07-31 06:00:00 10.9 2 Noroeste 4 Sur 0 -- -- 73
2019-07-31 05:00:00 12.5 2 Este 9 Norte 0 -- -- 69
2019-07-31 04:00:00 13 4 Norte 7 Norte 0 -- -- 66
2019-07-31 03:00:00 14.3 4 Nordeste 10 Nordeste 0 -- -- 60
2019-07-31 02:00:00 15.2 5 Norte 12 Nordeste 0 -- -- 56
2019-07-31 01:00:00 16.5 5 Nordeste 17 Nordeste 0 -- -- 47
2019-07-31 00:00:00 18 7 Nordeste 13 Nordeste 0 -- -- 38
2019-07-30 23:00:00 19.5 5 Nordeste 12 Norte 0 -- -- 35
2019-07-30 22:00:00 22.2 8 Nordeste 25 Nordeste 0 -- -- 31
2019-07-30 21:00:00 24.2 13 Nordeste 26 Nordeste 0 -- -- 29
2019-07-30 20:00:00 25.2 9 Nordeste 19 Nordeste 0 -- -- 28
2019-07-30 19:00:00 25.4 10 Este 21 Nordeste 0 -- -- 28
2019-07-30 18:00:00 25.8 8 Nordeste 18 Este 0 -- -- 26
2019-07-30 17:00:00 25 4 Sudeste 19 Nordeste 0 -- -- 25
2019-07-30 16:00:00 23.6 9 Este 22 Nordeste 0 -- -- 25
2019-07-30 15:00:00 22.4 9 Nordeste 23 Este 0 -- -- 31
2019-07-30 14:00:00 21.6 6 Norte 18 Sudeste 0 -- -- 34
2019-07-30 13:00:00 19.6 6 Norte 16 Este 0 -- -- 41
2019-07-30 12:00:00 17.9 5 Noroeste 11 Oeste 0 -- -- 49
2019-07-30 11:00:00 16.1 6 Noroeste 11 Noroeste 0 -- -- 54
2019-07-30 10:00:00 14.4 4 Noroeste 14 Noroeste 0 -- -- 58
2019-07-30 09:00:00 13.1 5 Noroeste 9 Noroeste 0 -- -- 62
2019-07-30 08:00:00 10.5 4 Oeste 9 Oeste 0 -- -- 70
2019-07-30 07:00:00 10.2 6 Noroeste 10 Oeste 0 -- -- 71
2019-07-30 06:00:00 11.2 6 Noroeste 16 Noroeste 0 -- -- 68
2019-07-30 05:00:00 11.4 3 Noroeste 7 Noroeste 0 -- -- 63
2019-07-30 04:00:00 12.5 4 Noroeste 12 Noroeste 0 -- -- 60
2019-07-30 03:00:00 13.7 3 Noroeste 9 Noroeste 0 -- -- 55
2019-07-30 02:00:00 14.8 5 Noroeste 13 Noroeste 0 -- -- 51
2019-07-30 01:00:00 16.7 8 Noroeste 21 Noroeste 0 -- -- 44
2019-07-30 00:00:00 17.9 11 Noroeste 25 Noroeste 0 -- -- 42
2019-07-29 23:00:00 19.5 11 Noroeste 19 Noroeste 0 -- -- 38
2019-07-29 22:00:00 21.3 11 Noroeste 22 Noroeste 0 -- -- 34
2019-07-29 21:00:00 23.4 16 Noroeste 31 Noroeste 0 -- -- 31
2019-07-29 20:00:00 25.6 14 Noroeste 33 Noroeste 0 -- -- 25
2019-07-29 19:00:00 26.7 17 Noroeste 37 Oeste 0 -- -- 25
2019-07-29 18:00:00 26.8 23 Noroeste 39 Oeste 0 -- -- 28
2019-07-29 17:00:00 26.9 22 Noroeste 43 Noroeste 0 -- -- 26
2019-07-29 16:00:00 26.6 17 Noroeste 35 Oeste 0 -- -- 36
2019-07-29 15:00:00 25.4 16 Oeste 33 Oeste 0 -- -- 41
2019-07-29 14:00:00 24.4 11 Noroeste 30 Oeste 0 -- -- 44
2019-07-29 13:00:00 22.7 12 Oeste 27 Noroeste 0 -- -- 45
2019-07-29 12:00:00 21.5 15 Noroeste 25 Oeste 0 -- -- 44
2019-07-29 11:00:00 20.5 11 Noroeste 24 Noroeste 0 -- -- 50
2019-07-29 10:00:00 19 10 Oeste 19 Oeste 0 -- -- 45
2019-07-29 09:00:00 17.2 8 Oeste 16 Oeste 0 -- -- 52
2019-07-29 08:00:00 14.5 5 Sudoeste 9 Sudoeste 0 -- -- 68
2019-07-29 07:00:00 14.7 4 Sur 13 Sudoeste 0 -- -- 69
2019-07-29 06:00:00 16.3 9 Oeste 22 Noroeste 0 -- -- 65
2019-07-29 05:00:00 16.1 4 Oeste 13 Oeste 0 -- -- 56
2019-07-29 04:00:00 16 3 Noroeste 15 Oeste 0 -- -- 46
2019-07-29 03:00:00 14.2 8 Sur 12 Sur 0 -- -- 51
2019-07-29 02:00:00 15.7 6 Sur 10 Sur 0 -- -- 41
2019-07-29 01:00:00 16.4 7 Sur 12 Sur 0 -- -- 48
2019-07-29 00:00:00 18.5 2 Sudoeste 5 Norte 0 -- -- 41
2019-07-28 23:00:00 21.4 2 Sudeste 4 Sudeste 0 -- -- 29
2019-07-28 22:00:00 23.9 4 Este 9 Nordeste 0 -- -- 25
2019-07-28 21:00:00 26 7 Norte 17 Norte 0 -- -- 23
2019-07-28 20:00:00 27.1 8 Noroeste 17 Oeste 0 -- -- 23
2019-07-28 19:00:00 27.5 8 Noroeste 18 Norte 0 -- -- 23
2019-07-28 18:00:00 27.3 6 Norte 21 Nordeste 0 -- -- 23
2019-07-28 17:00:00 27 7 Oeste 21 Oeste 0 -- -- 25
2019-07-28 16:00:00 25.6 10 Oeste 20 Oeste 0 -- -- 28
2019-07-28 15:00:00 25 9 Noroeste 22 Noroeste 0 -- -- 32
2019-07-28 14:00:00 23.3 9 Norte 17 Nordeste 0 -- -- 36
2019-07-28 13:00:00 22.2 5 Oeste 15 Norte 0 -- -- 41
2019-07-28 12:00:00 20.1 7 Este 15 Nordeste 0 -- -- 47
2019-07-28 11:00:00 18.2 8 Este 15 Nordeste 0 -- -- 58
2019-07-28 10:00:00 15.7 6 Este 11 Este 0 -- -- 69
2019-07-28 09:00:00 13 6 Nordeste 10 Nordeste 0 -- -- 77
2019-07-28 08:00:00 10.5 0 Calma 3 Sur 0 -- -- 82
2019-07-28 07:00:00 9.7 0 Calma 4 Sudoeste 0 -- -- 86
2019-07-28 06:00:00 10.3 2 Sudoeste 5 Sudoeste 0 -- -- 84
2019-07-28 05:00:00 11.3 2 Sudoeste 6 Nordeste 0 -- -- 83
2019-07-28 04:00:00 12.1 4 Norte 12 Nordeste 0 -- -- 79
2019-07-28 03:00:00 13.2 5 Nordeste 13 Nordeste 0 -- -- 76
2019-07-28 02:00:00 13.9 6 Nordeste 13 Nordeste 0 -- -- 73
2019-07-28 01:00:00 14.2 9 Nordeste 19 Nordeste 0 -- -- 72
2019-07-28 00:00:00 15.4 12 Nordeste 23 Nordeste 0 -- -- 68
2019-07-27 23:00:00 16.7 10 Nordeste 32 Nordeste 0 -- -- 67
2019-07-26 12:00:00 -- -- -- -- -- -- -- -- --
2019-07-26 11:00:00 18.2 8 Noroeste 16 Noroeste 0 -- -- 71
2019-07-26 10:00:00 17.1 10 Noroeste 20 Norte 0 -- -- 73
2019-07-26 09:00:00 17 13 Norte 20 Noroeste 0 -- -- 76
2019-07-26 08:00:00 17.3 9 Noroeste 19 Noroeste 0 -- -- 78
2019-07-26 07:00:00 17.8 7 Noroeste 15 Noroeste 0 -- -- 80
2019-07-26 06:00:00 18.1 5 Noroeste 14 Noroeste 0 -- -- 76
2019-07-26 05:00:00 18.6 10 Noroeste 24 Norte 0 -- -- 75
2019-07-26 04:00:00 19.1 11 Noroeste 25 Noroeste 0 -- -- 76
2019-07-26 03:00:00 20.2 13 Noroeste 26 Noroeste 0 -- -- 71
2019-07-26 02:00:00 21.3 17 Noroeste 33 Noroeste 0 -- -- 65
2019-07-26 01:00:00 23.1 6 Noroeste 12 Oeste 0 -- -- 52
2019-07-26 00:00:00 23.7 9 Norte 27 Noroeste 0 -- -- 51
2019-07-25 23:00:00 24.5 18 Noroeste 31 Noroeste 0 -- -- 48
2019-07-25 22:00:00 27.2 14 Oeste 30 Oeste 0 -- -- 30
2019-07-25 21:00:00 29.2 17 Oeste 41 Noroeste 0 -- -- 29
2019-07-25 20:00:00 30.7 18 Oeste 40 Oeste 0 -- -- 27
2019-07-25 19:00:00 32.2 20 Oeste 38 Oeste 0 -- -- 24
2019-07-25 18:00:00 33 21 Oeste 40 Noroeste 0 -- -- 24
2019-07-25 17:00:00 31.8 21 Oeste 42 Noroeste 0 -- -- 26
2019-07-25 16:00:00 31.2 25 Oeste 41 Oeste 0 -- -- 27
2019-07-25 15:00:00 32.9 18 Oeste 39 Oeste 0 -- -- 25
2019-07-25 14:00:00 32.8 17 Noroeste 38 Noroeste 0 -- -- 26
2019-07-25 13:00:00 32.4 8 Sudoeste 25 Sudoeste 0 -- -- 27
2019-07-25 12:00:00 31.3 9 Sudoeste 20 Sudoeste 0 -- -- 30
2019-07-25 11:00:00 29.5 5 Sudoeste 14 Sudoeste 0 -- -- 33
2019-07-25 10:00:00 25.9 6 Sudoeste 12 Sur 0 -- -- 41
2019-07-25 09:00:00 20.8 5 Sudoeste 10 Sur 0 -- -- 53
2019-07-25 08:00:00 17.6 6 Sur 10 Sur 0 -- -- 60
2019-07-25 07:00:00 17.7 5 Sur 10 Sur 0 -- -- 62
2019-07-25 06:00:00 18.3 5 Sur 9 Sur 0 -- -- 62
2019-07-25 05:00:00 18.9 7 Sur 10 Sur 0 -- -- 61
2019-07-25 04:00:00 19.7 5 Sur 9 Sudoeste 0 -- -- 59
2019-07-25 03:00:00 22.5 7 Sudoeste 18 Oeste 0 -- -- 50
2019-07-25 02:00:00 24.4 10 Noroeste 21 Oeste 0 -- -- 44
2019-07-25 01:00:00 23.1 6 Sur 9 Sur 0 -- -- 47
2019-07-25 00:00:00 25.7 4 Sur 7 Sur 0 -- -- 39
2019-07-24 23:00:00 27.5 4 Oeste 12 Oeste 0 -- -- 36
2019-07-24 22:00:00 29.5 6 Oeste 22 Oeste 0 -- -- 32
2019-07-24 21:00:00 32.5 8 Sudoeste 25 Sudoeste 0 -- -- 27
2019-07-24 20:00:00 34.5 9 Sudoeste 24 Sur 0 -- -- 22
2019-07-24 19:00:00 34.2 14 Sudoeste 29 Sur 0 -- -- 23
2019-07-24 18:00:00 34.5 15 Sur 33 Sudoeste 0 -- -- 22
2019-07-24 17:00:00 34.9 16 Sur 35 Sudoeste 0 -- -- 22
2019-07-24 16:00:00 34.7 17 Sudoeste 33 Sudoeste 0 -- -- 22
2019-07-24 15:00:00 34.7 14 Sudoeste 34 Sur 0 -- -- 23
2019-07-24 14:00:00 33.7 17 Sur 36 Sudoeste 0 -- -- 25
2019-07-24 13:00:00 32.9 14 Sur 27 Sudoeste 0 -- -- 27
2019-07-24 12:00:00 31.7 10 Sudoeste 23 Sudoeste 0 -- -- 32
2019-07-24 11:00:00 29.9 12 Sudoeste 23 Sudoeste 0 -- -- 33
2019-07-24 10:00:00 26.5 7 Sudoeste 12 Sudoeste 0 -- -- 43
2019-07-24 09:00:00 22.5 6 Sur 15 Sur 0 -- -- 54
2019-07-24 08:00:00 18.3 5 Sur 8 Sur 0 -- -- 66
2019-07-24 07:00:00 17.4 5 Oeste 9 Noroeste 0 -- -- 74
2019-07-24 06:00:00 18.7 2 Sudoeste 8 Sudeste 0 -- -- 65
2019-07-24 05:00:00 20.1 3 Sur 14 Nordeste 0 -- -- 59
2019-07-24 04:00:00 21.2 6 Sudeste 16 Este 0 -- -- 51
2019-07-24 03:00:00 21.9 6 Sur 17 Sur 0 -- -- 55
2019-07-24 02:00:00 22.9 12 Sur 20 Sur 0.2 -- -- 50
2019-07-24 01:00:00 23.2 13 Sur 17 Sur 0 -- -- 52
2019-07-24 00:00:00 23.2 6 Este 9 Este 0 -- -- 57